createdAt,value
2023-04-05T00:07:24.868Z,4.07
2023-04-05T00:17:31.768Z,3.63
2023-04-05T00:27:36.561Z,4.83
2023-04-05T00:37:41.571Z,4.90
2023-04-05T00:47:44.723Z,4.57
2023-04-05T00:57:52.935Z,5.30
2023-04-05T01:08:02.682Z,4.70
2023-04-05T01:18:11.772Z,4.17
2023-04-05T01:28:31.427Z,4.63
2023-04-05T01:38:34.017Z,5.07
2023-04-05T01:48:36.295Z,4.33
2023-04-05T01:58:38.944Z,5.37
2023-04-05T02:08:45.871Z,4.87
2023-04-05T02:18:52.719Z,5.43
2023-04-05T02:28:58.248Z,6.00
2023-04-05T02:39:00.814Z,5.37
2023-04-05T02:49:03.025Z,4.97
2023-04-05T02:59:16.084Z,4.73
2023-04-05T03:09:22.773Z,4.40
2023-04-05T03:19:30.341Z,4.10
2023-04-05T03:29:46.414Z,3.90
2023-04-05T03:39:55.039Z,4.30
2023-04-05T03:49:57.727Z,4.43
2023-04-05T04:00:02.317Z,4.03
2023-04-05T04:10:18.171Z,4.23
2023-04-05T04:20:24.821Z,4.33
2023-04-05T04:30:46.938Z,4.60
2023-04-05T04:41:10.093Z,3.70
2023-04-05T04:51:42.778Z,3.30
2023-04-05T05:01:46.657Z,3.53
2023-04-05T05:11:48.950Z,4.07
2023-04-05T05:21:54.289Z,3.77
2023-04-05T05:31:56.915Z,3.60
2023-04-05T05:42:05.177Z,4.43
2023-04-05T05:52:11.553Z,3.07
2023-04-05T06:02:18.355Z,4.70
2023-04-05T06:12:28.708Z,5.83
2023-04-05T06:22:34.762Z,5.60
2023-04-05T06:32:40.188Z,6.63
2023-04-05T06:42:52.774Z,5.20
2023-04-05T06:53:04.245Z,8.30
2023-04-05T07:03:10.357Z,9.20
2023-04-05T07:13:12.562Z,7.20
2023-04-05T07:23:18.380Z,7.17
2023-04-05T07:33:21.944Z,7.53
2023-04-05T07:43:32.411Z,6.67
2023-04-05T07:53:37.757Z,4.97
2023-04-05T08:03:40.445Z,7.30
2023-04-05T08:13:47.045Z,8.20
2023-04-05T08:23:54.643Z,4.63
2023-04-05T08:34:02.452Z,4.07
2023-04-05T08:44:08.326Z,3.10
2023-04-05T08:54:10.451Z,4.07
2023-04-05T09:04:23.894Z,4.00
2023-04-05T09:14:29.593Z,3.20
2023-04-05T09:24:39.993Z,1.53
2023-04-05T09:34:43.629Z,2.10
2023-04-05T09:45:01.537Z,2.50
2023-04-05T09:55:08.440Z,3.03
2023-04-05T10:05:17.613Z,3.30
2023-04-05T10:15:19.883Z,3.17
2023-04-05T10:25:23.424Z,3.97
2023-04-05T10:35:51.891Z,2.90
2023-04-05T10:45:56.987Z,3.70
2023-04-05T10:56:02.219Z,4.00
2023-04-05T11:06:23.368Z,3.07
2023-04-05T11:16:44.675Z,3.57
2023-04-05T11:26:57.766Z,3.53
2023-04-05T11:37:04.751Z,3.77
2023-04-05T11:47:12.482Z,3.40
2023-04-05T11:57:25.033Z,3.00
2023-04-05T12:07:37.191Z,3.83
2023-04-05T12:17:53.056Z,3.77
2023-04-05T12:27:57.597Z,3.07
2023-04-05T12:38:06.357Z,3.60
2023-04-05T12:48:11.190Z,3.53
2023-04-05T12:58:17.823Z,3.73
2023-04-05T13:08:20.549Z,4.07
2023-04-05T13:18:24.651Z,3.73
2023-04-05T13:28:27.647Z,4.20
2023-04-05T13:38:29.853Z,3.53
2023-04-05T13:48:32.074Z,3.87
2023-04-05T13:58:36.610Z,4.33
2023-04-05T14:08:38.869Z,3.87
2023-04-05T14:18:43.279Z,3.60
2023-04-05T14:28:45.584Z,3.90
2023-04-05T14:38:48.110Z,3.50
2023-04-05T14:48:55.272Z,4.23
2023-04-05T14:59:02.973Z,4.17
2023-04-05T15:09:10.085Z,3.57
2023-04-05T15:19:14.625Z,4.27
2023-04-05T15:29:20.259Z,4.50
2023-04-05T15:39:29.367Z,4.70
2023-04-05T15:49:34.930Z,3.90
2023-04-05T15:59:40.609Z,4.13
2023-04-05T16:09:45.617Z,3.57
2023-04-05T16:19:48.382Z,3.60
2023-04-05T16:29:50.649Z,3.63
2023-04-05T16:39:54.985Z,2.93
2023-04-05T16:49:57.260Z,3.10
2023-04-05T17:00:05.035Z,3.73
2023-04-05T17:10:07.953Z,3.47
2023-04-05T17:20:13.012Z,3.23
2023-04-05T17:30:18.439Z,2.67
2023-04-05T17:40:20.950Z,2.50
2023-04-05T17:50:28.934Z,3.50
2023-04-05T18:00:35.609Z,3.40
2023-04-05T18:10:40.160Z,2.73
2023-04-05T18:20:46.614Z,3.10
2023-04-05T18:30:50.632Z,4.60
2023-04-05T18:41:05.322Z,4.23
2023-04-05T18:51:13.785Z,4.87
2023-04-05T19:01:21.052Z,4.57
2023-04-05T19:11:26.980Z,5.50
2023-04-05T19:21:29.328Z,6.60
2023-04-05T19:31:35.250Z,6.03
2023-04-05T19:41:37.630Z,5.57
2023-04-05T19:51:41.967Z,4.33
2023-04-05T20:01:47.575Z,3.93
2023-04-05T20:11:58.163Z,3.87
2023-04-05T20:22:01.746Z,3.57
2023-04-05T20:32:08.624Z,3.97
2023-04-05T20:42:15.952Z,4.33
2023-04-05T20:52:21.049Z,6.37
2023-04-05T21:02:23.679Z,4.40
2023-04-05T21:12:28.970Z,3.67
2023-04-05T21:22:32.236Z,4.37
2023-04-05T21:32:37.630Z,4.30
2023-04-05T21:42:39.925Z,4.27
2023-04-05T21:52:42.386Z,4.37
2023-04-05T22:02:47.078Z,4.53
2023-04-05T22:12:51.689Z,4.63
2023-04-05T22:22:54.060Z,5.43
2023-04-05T22:32:57.021Z,5.77
2023-04-05T22:42:59.279Z,4.97
2023-04-05T22:53:03.739Z,4.67
2023-04-05T23:03:07.494Z,4.33
2023-04-05T23:13:12.432Z,4.43
2023-04-05T23:23:16.990Z,3.90
2023-04-05T23:33:22.355Z,3.80
2023-04-05T23:43:27.807Z,3.17
2023-04-05T23:53:33.108Z,3.30
